sensor_id;sensor_type;location;lat;lon;timestamp;pressure;altitude;pressure_sealevel;temperature;humidity
45078;BME280;60508;42.622;25.416;2022-12-29T00:01:49;97829.75;;;6.73;71.22
45078;BME280;60508;42.622;25.416;2022-12-29T00:04:16;97834.91;;;6.75;71.46
45078;BME280;60508;42.622;25.416;2022-12-29T00:06:42;97824.25;;;6.82;71.41
45078;BME280;60508;42.622;25.416;2022-12-29T00:09:10;97830.84;;;6.86;71.17
45078;BME280;60508;42.622;25.416;2022-12-29T00:11:36;97841.88;;;6.76;71.30
45078;BME280;60508;42.622;25.416;2022-12-29T00:14:01;97829.09;;;6.71;71.72
45078;BME280;60508;42.622;25.416;2022-12-29T00:16:47;97832.28;;;6.60;72.52
45078;BME280;60508;42.622;25.416;2022-12-29T00:19:13;97837.09;;;6.71;71.86
45078;BME280;60508;42.622;25.416;2022-12-29T00:21:58;97815.31;;;6.96;71.45
45078;BME280;60508;42.622;25.416;2022-12-29T00:24:44;97834.03;;;6.96;70.88
45078;BME280;60508;42.622;25.416;2022-12-29T00:27:29;97836.44;;;6.91;70.92
45078;BME280;60508;42.622;25.416;2022-12-29T00:30:18;97841.06;;;6.75;71.81
45078;BME280;60508;42.622;25.416;2022-12-29T00:33:13;97838.34;;;6.69;72.34
45078;BME280;60508;42.622;25.416;2022-12-29T00:38:29;97832.41;;;6.52;72.79
45078;BME280;60508;42.622;25.416;2022-12-29T00:41:15;97848.78;;;6.64;72.68
45078;BME280;60508;42.622;25.416;2022-12-29T00:44:00;97848.31;;;6.60;72.66
45078;BME280;60508;42.622;25.416;2022-12-29T00:46:41;97853.88;;;6.65;72.74
45078;BME280;60508;42.622;25.416;2022-12-29T00:49:08;97854.34;;;6.47;73.41
45078;BME280;60508;42.622;25.416;2022-12-29T00:51:54;97854.41;;;6.54;73.31
45078;BME280;60508;42.622;25.416;2022-12-29T00:54:20;97856.78;;;6.64;73.21
45078;BME280;60508;42.622;25.416;2022-12-29T00:56:47;97863.56;;;6.66;72.87
45078;BME280;60508;42.622;25.416;2022-12-29T00:59:13;97862.91;;;6.86;72.04
45078;BME280;60508;42.622;25.416;2022-12-29T01:01:39;97865.28;;;7.02;71.17
45078;BME280;60508;42.622;25.416;2022-12-29T01:04:06;97860.59;;;7.04;71.21
45078;BME280;60508;42.622;25.416;2022-12-29T01:06:32;97854.22;;;7.05;70.98
45078;BME280;60508;42.622;25.416;2022-12-29T01:08:59;97854.41;;;7.04;71.06
45078;BME280;60508;42.622;25.416;2022-12-29T01:11:43;97853.66;;;7.10;70.85
45078;BME280;60508;42.622;25.416;2022-12-29T01:14:10;97852.41;;;7.06;70.87
45078;BME280;60508;42.622;25.416;2022-12-29T01:16:35;97853.97;;;7.00;71.25
45078;BME280;60508;42.622;25.416;2022-12-29T01:19:02;97855.84;;;7.00;71.14
45078;BME280;60508;42.622;25.416;2022-12-29T01:21:28;97858.53;;;6.78;71.62
45078;BME280;60508;42.622;25.416;2022-12-29T01:23:56;97836.19;;;6.86;71.71
45078;BME280;60508;42.622;25.416;2022-12-29T01:26:22;97844.44;;;6.91;71.75
45078;BME280;60508;42.622;25.416;2022-12-29T01:28:51;97841.50;;;6.79;72.17
45078;BME280;60508;42.622;25.416;2022-12-29T01:31:16;97829.38;;;6.55;72.54
45078;BME280;60508;42.622;25.416;2022-12-29T01:33:42;97824.84;;;6.34;73.77
45078;BME280;60508;42.622;25.416;2022-12-29T01:36:10;97821.56;;;6.32;74.67
45078;BME280;60508;42.622;25.416;2022-12-29T01:38:37;97823.84;;;6.35;74.53
45078;BME280;60508;42.622;25.416;2022-12-29T01:41:03;97819.34;;;6.35;74.46
45078;BME280;60508;42.622;25.416;2022-12-29T01:46:04;97819.25;;;6.72;74.04
45078;BME280;60508;42.622;25.416;2022-12-29T01:48:37;97810.81;;;6.97;72.80
45078;BME280;60508;42.622;25.416;2022-12-29T01:51:03;97810.03;;;7.03;72.19
45078;BME280;60508;42.622;25.416;2022-12-29T01:53:30;97814.97;;;7.06;71.58
45078;BME280;60508;42.622;25.416;2022-12-29T01:55:59;97815.56;;;7.01;71.43
45078;BME280;60508;42.622;25.416;2022-12-29T01:58:28;97813.19;;;6.85;71.79
45078;BME280;60508;42.622;25.416;2022-12-29T02:00:54;97820.44;;;6.69;72.77
45078;BME280;60508;42.622;25.416;2022-12-29T02:03:20;97807.72;;;6.71;72.60
45078;BME280;60508;42.622;25.416;2022-12-29T02:05:58;97801.50;;;6.64;72.21
45078;BME280;60508;42.622;25.416;2022-12-29T02:08:28;97799.66;;;6.65;72.32
45078;BME280;60508;42.622;25.416;2022-12-29T02:10:55;97794.75;;;6.68;72.32
45078;BME280;60508;42.622;25.416;2022-12-29T02:13:23;97787.72;;;6.61;71.93
45078;BME280;60508;42.622;25.416;2022-12-29T02:23:36;97789.28;;;6.27;74.04
45078;BME280;60508;42.622;25.416;2022-12-29T02:41:32;97778.03;;;6.10;73.29
45078;BME280;60508;42.622;25.416;2022-12-29T02:44:01;97781.44;;;6.03;73.43
45078;BME280;60508;42.622;25.416;2022-12-29T02:51:37;97766.78;;;5.41;75.49
45078;BME280;60508;42.622;25.416;2022-12-29T02:54:05;97773.66;;;5.36;76.05
45078;BME280;60508;42.622;25.416;2022-12-29T02:56:50;97772.13;;;5.26;76.23
45078;BME280;60508;42.622;25.416;2022-12-29T02:59:16;97767.16;;;5.23;76.42
45078;BME280;60508;42.622;25.416;2022-12-29T03:04:36;97752.81;;;5.24;76.18
45078;BME280;60508;42.622;25.416;2022-12-29T03:09:55;97749.56;;;5.44;76.18
45078;BME280;60508;42.622;25.416;2022-12-29T03:15:13;97748.16;;;5.26;74.32
45078;BME280;60508;42.622;25.416;2022-12-29T03:23:22;97753.19;;;5.21;76.70
45078;BME280;60508;42.622;25.416;2022-12-29T03:25:53;97752.53;;;5.19;76.55
45078;BME280;60508;42.622;25.416;2022-12-29T03:28:22;97744.75;;;5.03;76.05
45078;BME280;60508;42.622;25.416;2022-12-29T03:30:50;97757.03;;;4.89;76.08
45078;BME280;60508;42.622;25.416;2022-12-29T03:33:21;97754.47;;;4.81;76.64
45078;BME280;60508;42.622;25.416;2022-12-29T03:35:49;97744.19;;;4.78;77.11
45078;BME280;60508;42.622;25.416;2022-12-29T03:40:42;97756.03;;;4.90;78.68
45078;BME280;60508;42.622;25.416;2022-12-29T03:43:10;97754.09;;;4.99;78.30
45078;BME280;60508;42.622;25.416;2022-12-29T03:45:37;97752.00;;;4.94;78.54
45078;BME280;60508;42.622;25.416;2022-12-29T03:48:03;97764.22;;;4.88;78.20
45078;BME280;60508;42.622;25.416;2022-12-29T03:50:30;97763.75;;;4.85;78.79
45078;BME280;60508;42.622;25.416;2022-12-29T03:52:57;97759.34;;;4.77;79.42
45078;BME280;60508;42.622;25.416;2022-12-29T03:55:25;97757.84;;;4.60;80.37
45078;BME280;60508;42.622;25.416;2022-12-29T03:57:52;97750.13;;;4.50;81.41
45078;BME280;60508;42.622;25.416;2022-12-29T04:00:28;97757.13;;;4.28;83.40
45078;BME280;60508;42.622;25.416;2022-12-29T04:02:55;97762.78;;;4.48;82.41
45078;BME280;60508;42.622;25.416;2022-12-29T04:05:22;97772.06;;;4.52;82.39
45078;BME280;60508;42.622;25.416;2022-12-29T04:07:50;97761.03;;;4.40;82.74
45078;BME280;60508;42.622;25.416;2022-12-29T04:10:17;97759.69;;;4.59;82.67
45078;BME280;60508;42.622;25.416;2022-12-29T04:12:44;97755.19;;;4.74;81.16
45078;BME280;60508;42.622;25.416;2022-12-29T04:15:11;97762.00;;;4.62;81.06
45078;BME280;60508;42.622;25.416;2022-12-29T04:17:37;97760.31;;;4.61;80.58
45078;BME280;60508;42.622;25.416;2022-12-29T04:20:05;97760.50;;;4.60;81.57
45078;BME280;60508;42.622;25.416;2022-12-29T04:22:57;97761.53;;;4.73;80.86
45078;BME280;60508;42.622;25.416;2022-12-29T04:25:23;97750.41;;;4.55;80.81
45078;BME280;60508;42.622;25.416;2022-12-29T04:27:50;97759.94;;;4.49;81.66
45078;BME280;60508;42.622;25.416;2022-12-29T04:30:34;97762.63;;;4.64;81.34
45078;BME280;60508;42.622;25.416;2022-12-29T04:33:07;97756.31;;;4.65;82.22
45078;BME280;60508;42.622;25.416;2022-12-29T04:35:32;97761.19;;;4.77;82.40
45078;BME280;60508;42.622;25.416;2022-12-29T04:37:58;97765.31;;;4.94;81.89
45078;BME280;60508;42.622;25.416;2022-12-29T04:40:24;97761.91;;;5.00;81.89
45078;BME280;60508;42.622;25.416;2022-12-29T04:42:50;97765.59;;;4.99;81.39
45078;BME280;60508;42.622;25.416;2022-12-29T04:45:17;97756.13;;;4.82;81.58
45078;BME280;60508;42.622;25.416;2022-12-29T04:48:00;97756.41;;;4.72;81.25
45078;BME280;60508;42.622;25.416;2022-12-29T04:50:42;97762.91;;;4.84;80.95
45078;BME280;60508;42.622;25.416;2022-12-29T04:53:31;97763.94;;;4.68;80.23
45078;BME280;60508;42.622;25.416;2022-12-29T04:55:58;97759.88;;;4.72;80.18
45078;BME280;60508;42.622;25.416;2022-12-29T04:58:24;97767.47;;;4.46;81.00
45078;BME280;60508;42.622;25.416;2022-12-29T05:00:51;97767.84;;;4.57;81.13
45078;BME280;60508;42.622;25.416;2022-12-29T05:03:19;97777.88;;;4.70;80.65
45078;BME280;60508;42.622;25.416;2022-12-29T05:05:45;97777.88;;;4.70;79.36
45078;BME280;60508;42.622;25.416;2022-12-29T05:08:11;97778.31;;;4.59;79.06
45078;BME280;60508;42.622;25.416;2022-12-29T05:10:37;97780.13;;;4.58;78.49
45078;BME280;60508;42.622;25.416;2022-12-29T05:13:08;97777.78;;;4.64;79.43
45078;BME280;60508;42.622;25.416;2022-12-29T05:15:34;97783.28;;;4.62;79.74
45078;BME280;60508;42.622;25.416;2022-12-29T05:18:00;97778.22;;;4.52;80.25
45078;BME280;60508;42.622;25.416;2022-12-29T05:20:28;97782.78;;;4.44;80.07
45078;BME280;60508;42.622;25.416;2022-12-29T05:22:54;97784.88;;;4.33;80.78
45078;BME280;60508;42.622;25.416;2022-12-29T05:25:19;97784.56;;;4.28;81.45
45078;BME280;60508;42.622;25.416;2022-12-29T05:27:55;97784.56;;;4.28;82.23
45078;BME280;60508;42.622;25.416;2022-12-29T05:30:37;97779.19;;;4.36;82.73
45078;BME280;60508;42.622;25.416;2022-12-29T05:33:02;97784.06;;;4.25;82.78
45078;BME280;60508;42.622;25.416;2022-12-29T05:35:28;97791.13;;;3.94;81.62
45078;BME280;60508;42.622;25.416;2022-12-29T05:37:54;97794.19;;;3.83;80.94
45078;BME280;60508;42.622;25.416;2022-12-29T05:40:20;97790.84;;;3.58;81.67
45078;BME280;60508;42.622;25.416;2022-12-29T05:42:46;97784.13;;;3.70;82.29
45078;BME280;60508;42.622;25.416;2022-12-29T05:45:38;97795.13;;;3.67;82.47
45078;BME280;60508;42.622;25.416;2022-12-29T05:48:22;97786.25;;;3.43;83.08
45078;BME280;60508;42.622;25.416;2022-12-29T05:51:08;97782.63;;;3.68;82.74
45078;BME280;60508;42.622;25.416;2022-12-29T05:53:53;97786.56;;;3.80;82.35
45078;BME280;60508;42.622;25.416;2022-12-29T05:56:19;97791.00;;;3.88;82.37
45078;BME280;60508;42.622;25.416;2022-12-29T05:58:51;97787.63;;;3.94;82.17
45078;BME280;60508;42.622;25.416;2022-12-29T06:01:17;97804.91;;;3.98;81.86
45078;BME280;60508;42.622;25.416;2022-12-29T06:03:44;97795.06;;;3.75;82.11
45078;BME280;60508;42.622;25.416;2022-12-29T06:06:10;97800.16;;;3.54;83.61
45078;BME280;60508;42.622;25.416;2022-12-29T06:08:36;97796.97;;;3.58;84.08
45078;BME280;60508;42.622;25.416;2022-12-29T06:11:03;97788.75;;;3.76;84.18
45078;BME280;60508;42.622;25.416;2022-12-29T06:13:29;97786.34;;;3.90;84.23
45078;BME280;60508;42.622;25.416;2022-12-29T06:15:56;97805.59;;;3.92;84.02
45078;BME280;60508;42.622;25.416;2022-12-29T06:18:25;97799.13;;;3.94;83.91
45078;BME280;60508;42.622;25.416;2022-12-29T06:20:52;97794.16;;;4.14;84.25
45078;BME280;60508;42.622;25.416;2022-12-29T06:23:18;97796.16;;;4.35;83.94
45078;BME280;60508;42.622;25.416;2022-12-29T06:25:44;97797.50;;;4.54;83.10
45078;BME280;60508;42.622;25.416;2022-12-29T06:28:11;97807.91;;;4.79;81.96
45078;BME280;60508;42.622;25.416;2022-12-29T06:30:38;97804.34;;;5.17;80.62
45078;BME280;60508;42.622;25.416;2022-12-29T06:33:03;97805.34;;;5.45;78.70
45078;BME280;60508;42.622;25.416;2022-12-29T06:35:29;97812.69;;;5.58;78.22
45078;BME280;60508;42.622;25.416;2022-12-29T06:37:55;97806.19;;;5.46;76.96
45078;BME280;60508;42.622;25.416;2022-12-29T06:40:22;97799.66;;;5.48;76.21
45078;BME280;60508;42.622;25.416;2022-12-29T06:43:08;97792.59;;;5.41;77.41
45078;BME280;60508;42.622;25.416;2022-12-29T06:45:51;97804.06;;;5.56;77.73
45078;BME280;60508;42.622;25.416;2022-12-29T06:48:17;97793.94;;;5.66;77.81
45078;BME280;60508;42.622;25.416;2022-12-29T06:50:43;97796.97;;;5.78;77.44
45078;BME280;60508;42.622;25.416;2022-12-29T06:53:09;97803.44;;;6.06;75.52
45078;BME280;60508;42.622;25.416;2022-12-29T06:55:36;97803.31;;;6.14;74.41
45078;BME280;60508;42.622;25.416;2022-12-29T06:58:02;97797.72;;;6.30;73.03
45078;BME280;60508;42.622;25.416;2022-12-29T07:00:32;97803.38;;;6.42;72.15
45078;BME280;60508;42.622;25.416;2022-12-29T07:02:58;97799.44;;;6.38;72.14
45078;BME280;60508;42.622;25.416;2022-12-29T07:05:24;97801.50;;;6.43;71.91
45078;BME280;60508;42.622;25.416;2022-12-29T07:07:52;97804.00;;;6.44;71.51
45078;BME280;60508;42.622;25.416;2022-12-29T07:10:18;97806.75;;;6.51;70.49
45078;BME280;60508;42.622;25.416;2022-12-29T07:12:44;97805.47;;;6.47;69.71
45078;BME280;60508;42.622;25.416;2022-12-29T07:15:10;97814.13;;;6.27;69.52
45078;BME280;60508;42.622;25.416;2022-12-29T07:17:36;97811.78;;;6.17;70.25
45078;BME280;60508;42.622;25.416;2022-12-29T07:20:02;97818.44;;;6.28;70.16
45078;BME280;60508;42.622;25.416;2022-12-29T07:22:28;97819.56;;;6.40;69.12
45078;BME280;60508;42.622;25.416;2022-12-29T07:24:53;97821.06;;;6.43;69.27
45078;BME280;60508;42.622;25.416;2022-12-29T07:27:19;97818.44;;;6.50;69.39
45078;BME280;60508;42.622;25.416;2022-12-29T07:29:45;97813.59;;;6.60;68.95
45078;BME280;60508;42.622;25.416;2022-12-29T07:32:12;97826.56;;;6.63;68.71
45078;BME280;60508;42.622;25.416;2022-12-29T07:34:38;97833.03;;;6.54;69.02
45078;BME280;60508;42.622;25.416;2022-12-29T07:37:05;97830.94;;;6.71;68.93
45078;BME280;60508;42.622;25.416;2022-12-29T07:39:31;97834.59;;;6.91;68.23
45078;BME280;60508;42.622;25.416;2022-12-29T07:41:57;97826.59;;;6.91;67.89
45078;BME280;60508;42.622;25.416;2022-12-29T07:44:25;97825.38;;;6.94;67.93
45078;BME280;60508;42.622;25.416;2022-12-29T07:47:10;97831.22;;;7.04;67.36
45078;BME280;60508;42.622;25.416;2022-12-29T07:49:36;97824.97;;;7.25;66.88
45078;BME280;60508;42.622;25.416;2022-12-29T07:52:03;97825.44;;;7.36;66.19
45078;BME280;60508;42.622;25.416;2022-12-29T07:54:28;97825.53;;;7.56;65.52
45078;BME280;60508;42.622;25.416;2022-12-29T07:56:54;97826.84;;;7.73;64.88
45078;BME280;60508;42.622;25.416;2022-12-29T07:59:20;97827.16;;;7.92;64.07
45078;BME280;60508;42.622;25.416;2022-12-29T08:01:46;97835.97;;;7.92;63.89
45078;BME280;60508;42.622;25.416;2022-12-29T08:04:12;97830.44;;;7.94;64.90
45078;BME280;60508;42.622;25.416;2022-12-29T08:06:38;97829.66;;;8.13;64.01
45078;BME280;60508;42.622;25.416;2022-12-29T08:09:04;97830.34;;;8.42;63.01
45078;BME280;60508;42.622;25.416;2022-12-29T08:11:30;97836.41;;;8.64;62.38
45078;BME280;60508;42.622;25.416;2022-12-29T08:13:56;97828.34;;;8.91;63.48
45078;BME280;60508;42.622;25.416;2022-12-29T08:16:22;97828.69;;;9.48;61.81
45078;BME280;60508;42.622;25.416;2022-12-29T08:18:48;97835.41;;;10.22;59.25
45078;BME280;60508;42.622;25.416;2022-12-29T08:21:14;97840.38;;;10.89;56.45
45078;BME280;60508;42.622;25.416;2022-12-29T08:23:40;97831.63;;;11.19;53.63
45078;BME280;60508;42.622;25.416;2022-12-29T08:26:06;97828.97;;;11.93;52.20
45078;BME280;60508;42.622;25.416;2022-12-29T08:28:32;97823.63;;;12.54;49.29
45078;BME280;60508;42.622;25.416;2022-12-29T08:31:01;97816.28;;;12.85;48.34
45078;BME280;60508;42.622;25.416;2022-12-29T08:33:27;97821.97;;;13.42;46.35
45078;BME280;60508;42.622;25.416;2022-12-29T08:35:58;97815.63;;;14.01;45.87
45078;BME280;60508;42.622;25.416;2022-12-29T08:38:24;97824.09;;;14.62;43.28
45078;BME280;60508;42.622;25.416;2022-12-29T08:40:51;97827.56;;;14.91;42.63
45078;BME280;60508;42.622;25.416;2022-12-29T08:43:16;97822.63;;;15.39;41.05
45078;BME280;60508;42.622;25.416;2022-12-29T08:45:42;97819.72;;;16.07;39.76
45078;BME280;60508;42.622;25.416;2022-12-29T08:48:08;97817.50;;;16.53;38.89
45078;BME280;60508;42.622;25.416;2022-12-29T08:50:34;97818.97;;;17.74;36.72
45078;BME280;60508;42.622;25.416;2022-12-29T08:52:59;97814.09;;;18.70;34.84
45078;BME280;60508;42.622;25.416;2022-12-29T08:55:26;97813.88;;;19.07;34.04
45078;BME280;60508;42.622;25.416;2022-12-29T08:57:53;97808.06;;;19.65;32.64
45078;BME280;60508;42.622;25.416;2022-12-29T09:00:20;97809.28;;;20.59;31.08
45078;BME280;60508;42.622;25.416;2022-12-29T09:02:46;97801.59;;;21.06;29.59
45078;BME280;60508;42.622;25.416;2022-12-29T09:05:12;97797.72;;;21.89;28.68
45078;BME280;60508;42.622;25.416;2022-12-29T09:07:38;97799.22;;;22.63;27.53
45078;BME280;60508;42.622;25.416;2022-12-29T09:10:04;97795.97;;;22.61;27.49
45078;BME280;60508;42.622;25.416;2022-12-29T09:12:30;97785.75;;;22.67;27.13
45078;BME280;60508;42.622;25.416;2022-12-29T09:14:56;97785.91;;;22.56;27.15
45078;BME280;60508;42.622;25.416;2022-12-29T09:17:22;97787.84;;;22.37;27.24
45078;BME280;60508;42.622;25.416;2022-12-29T09:20:06;97791.75;;;22.50;26.96
45078;BME280;60508;42.622;25.416;2022-12-29T09:22:32;97782.78;;;22.63;27.19
45078;BME280;60508;42.622;25.416;2022-12-29T09:24:58;97782.44;;;23.36;26.14
45078;BME280;60508;42.622;25.416;2022-12-29T09:27:23;97789.09;;;23.90;25.33
45078;BME280;60508;42.622;25.416;2022-12-29T09:29:50;97767.94;;;25.00;24.08
45078;BME280;60508;42.622;25.416;2022-12-29T09:32:15;97775.56;;;25.97;22.72
45078;BME280;60508;42.622;25.416;2022-12-29T09:34:42;97776.41;;;26.07;22.49
45078;BME280;60508;42.622;25.416;2022-12-29T09:37:07;97766.88;;;26.48;22.25
45078;BME280;60508;42.622;25.416;2022-12-29T09:39:33;97769.91;;;27.16;21.09
45078;BME280;60508;42.622;25.416;2022-12-29T09:44:38;97744.91;;;24.87;23.43
45078;BME280;60508;42.622;25.416;2022-12-29T09:47:10;97754.47;;;25.21;23.08
45078;BME280;60508;42.622;25.416;2022-12-29T09:49:48;97756.38;;;25.83;22.47
45078;BME280;60508;42.622;25.416;2022-12-29T09:52:16;97762.63;;;27.03;21.56
45078;BME280;60508;42.622;25.416;2022-12-29T09:55:01;97753.06;;;28.25;20.09
45078;BME280;60508;42.622;25.416;2022-12-29T09:57:41;97741.47;;;28.31;19.78
45078;BME280;60508;42.622;25.416;2022-12-29T10:00:13;97741.59;;;28.56;19.37
45078;BME280;60508;42.622;25.416;2022-12-29T10:02:42;97735.00;;;28.27;19.47
45078;BME280;60508;42.622;25.416;2022-12-29T10:05:18;97730.22;;;26.91;20.55
45078;BME280;60508;42.622;25.416;2022-12-29T10:07:48;97730.13;;;27.26;20.31
45078;BME280;60508;42.622;25.416;2022-12-29T10:10:30;97726.22;;;27.27;20.25
45078;BME280;60508;42.622;25.416;2022-12-29T10:18:36;97718.06;;;28.08;19.49
45078;BME280;60508;42.622;25.416;2022-12-29T10:20:53;97730.00;;;27.99;19.46
45078;BME280;60508;42.622;25.416;2022-12-29T10:25:46;97717.34;;;31.76;17.08
45078;BME280;60508;42.622;25.416;2022-12-29T10:28:22;97716.63;;;32.50;16.14
45078;BME280;60508;42.622;25.416;2022-12-29T10:30:48;97713.19;;;32.56;15.96
45078;BME280;60508;42.622;25.416;2022-12-29T10:33:15;97718.13;;;32.08;16.10
45078;BME280;60508;42.622;25.416;2022-12-29T10:35:44;97713.34;;;32.09;15.97
45078;BME280;60508;42.622;25.416;2022-12-29T10:43:29;97702.31;;;34.70;14.31
45078;BME280;60508;42.622;25.416;2022-12-29T10:45:59;97703.47;;;34.32;14.34
45078;BME280;60508;42.622;25.416;2022-12-29T10:48:29;97700.69;;;35.41;13.89
45078;BME280;60508;42.622;25.416;2022-12-29T10:50:56;97704.25;;;35.82;13.26
45078;BME280;60508;42.622;25.416;2022-12-29T10:53:24;97703.78;;;34.91;13.33
45078;BME280;60508;42.622;25.416;2022-12-29T10:55:51;97697.09;;;34.05;14.02
45078;BME280;60508;42.622;25.416;2022-12-29T10:58:18;97688.94;;;33.92;13.96
45078;BME280;60508;42.622;25.416;2022-12-29T11:00:48;97682.13;;;34.47;13.81
45078;BME280;60508;42.622;25.416;2022-12-29T11:05:41;97668.50;;;34.11;13.73
45078;BME280;60508;42.622;25.416;2022-12-29T11:08:12;97668.25;;;32.54;14.65
45078;BME280;60508;42.622;25.416;2022-12-29T11:10:41;97658.19;;;32.89;14.84
45078;BME280;60508;42.622;25.416;2022-12-29T11:15:39;97651.50;;;33.66;13.98
45078;BME280;60508;42.622;25.416;2022-12-29T11:18:04;97655.88;;;32.71;14.46
45078;BME280;60508;42.622;25.416;2022-12-29T11:20:37;97656.31;;;31.47;15.35
45078;BME280;60508;42.622;25.416;2022-12-29T11:28:33;97657.28;;;32.85;14.67
45078;BME280;60508;42.622;25.416;2022-12-29T11:31:00;97652.78;;;32.57;15.09
45078;BME280;60508;42.622;25.416;2022-12-29T11:33:30;97653.22;;;31.17;15.96
45078;BME280;60508;42.622;25.416;2022-12-29T11:35:57;97652.94;;;31.70;15.82
45078;BME280;60508;42.622;25.416;2022-12-29T11:38:25;97647.41;;;31.90;15.39
45078;BME280;60508;42.622;25.416;2022-12-29T11:40:55;97643.31;;;32.81;15.02
45078;BME280;60508;42.622;25.416;2022-12-29T11:45:58;97643.44;;;34.45;13.98
45078;BME280;60508;42.622;25.416;2022-12-29T11:48:25;97647.19;;;34.98;13.40
45078;BME280;60508;42.622;25.416;2022-12-29T11:50:55;97634.28;;;34.14;13.93
45078;BME280;60508;42.622;25.416;2022-12-29T11:53:23;97642.81;;;35.41;13.44
45078;BME280;60508;42.622;25.416;2022-12-29T11:55:58;97641.75;;;36.27;12.85
45078;BME280;60508;42.622;25.416;2022-12-29T11:58:28;97635.81;;;36.39;12.17
45078;BME280;60508;42.622;25.416;2022-12-29T12:00:54;97637.41;;;35.70;12.49
45078;BME280;60508;42.622;25.416;2022-12-29T12:03:23;97623.97;;;34.86;13.40
45078;BME280;60508;42.622;25.416;2022-12-29T12:05:56;97626.06;;;34.25;13.68
45078;BME280;60508;42.622;25.416;2022-12-29T12:08:35;97623.19;;;34.89;13.29
45078;BME280;60508;42.622;25.416;2022-12-29T12:17:04;97617.59;;;32.45;15.21
45078;BME280;60508;42.622;25.416;2022-12-29T12:19:38;97616.34;;;32.23;15.57
45078;BME280;60508;42.622;25.416;2022-12-29T12:24:42;97608.31;;;27.15;19.39
45078;BME280;60508;42.622;25.416;2022-12-29T12:27:18;97592.00;;;25.00;21.70
45078;BME280;60508;42.622;25.416;2022-12-29T12:32:22;97586.81;;;21.86;25.77
45078;BME280;60508;42.622;25.416;2022-12-29T12:34:51;97579.66;;;20.85;27.36
45078;BME280;60508;42.622;25.416;2022-12-29T12:38:21;97583.03;;;19.83;28.60
45078;BME280;60508;42.622;25.416;2022-12-29T12:42:52;97569.16;;;18.39;30.69
45078;BME280;60508;42.622;25.416;2022-12-29T12:45:30;97580.63;;;17.90;31.95
45078;BME280;60508;42.622;25.416;2022-12-29T12:50:45;97584.03;;;17.44;33.10
45078;BME280;60508;42.622;25.416;2022-12-29T12:53:25;97584.31;;;16.74;34.69
45078;BME280;60508;42.622;25.416;2022-12-29T12:55:58;97584.88;;;15.96;35.89
45078;BME280;60508;42.622;25.416;2022-12-29T13:19:20;97585.59;;;14.87;40.69
45078;BME280;60508;42.622;25.416;2022-12-29T13:22:34;97588.63;;;14.91;40.47
45078;BME280;60508;42.622;25.416;2022-12-29T13:27:26;97590.09;;;14.42;41.52
45078;BME280;60508;42.622;25.416;2022-12-29T13:30:28;97592.81;;;14.42;41.83
45078;BME280;60508;42.622;25.416;2022-12-29T13:37:54;97597.41;;;14.08;42.69
45078;BME280;60508;42.622;25.416;2022-12-29T13:40:25;97596.28;;;14.04;43.32
45078;BME280;60508;42.622;25.416;2022-12-29T13:42:52;97606.91;;;13.94;43.10
45078;BME280;60508;42.622;25.416;2022-12-29T13:45:19;97598.63;;;13.83;43.80
45078;BME280;60508;42.622;25.416;2022-12-29T13:50:19;97598.28;;;13.80;44.62
45078;BME280;60508;42.622;25.416;2022-12-29T13:52:52;97591.50;;;13.77;44.53
45078;BME280;60508;42.622;25.416;2022-12-29T14:00:23;97593.13;;;13.61;44.85
45078;BME280;60508;42.622;25.416;2022-12-29T14:05:27;97598.25;;;13.46;45.41
45078;BME280;60508;42.622;25.416;2022-12-29T14:08:00;97590.06;;;13.41;45.89
45078;BME280;60508;42.622;25.416;2022-12-29T14:15:56;97604.28;;;13.36;46.22
45078;BME280;60508;42.622;25.416;2022-12-29T14:18:31;97600.19;;;13.22;46.67
45078;BME280;60508;42.622;25.416;2022-12-29T14:30:53;97613.44;;;12.71;50.16
45078;BME280;60508;42.622;25.416;2022-12-29T14:33:19;97606.66;;;12.33;51.61
45078;BME280;60508;42.622;25.416;2022-12-29T14:35:46;97609.59;;;12.43;51.09
45078;BME280;60508;42.622;25.416;2022-12-29T14:38:16;97609.59;;;12.31;51.52
45078;BME280;60508;42.622;25.416;2022-12-29T14:40:42;97609.59;;;12.19;51.93
45078;BME280;60508;42.622;25.416;2022-12-29T14:43:12;97615.91;;;12.01;53.35
45078;BME280;60508;42.622;25.416;2022-12-29T14:45:39;97615.59;;;11.91;53.62
45078;BME280;60508;42.622;25.416;2022-12-29T14:50:50;97606.09;;;11.77;54.45
45078;BME280;60508;42.622;25.416;2022-12-29T14:56:01;97610.31;;;11.42;55.30
45078;BME280;60508;42.622;25.416;2022-12-29T14:58:31;97606.88;;;11.35;55.45
45078;BME280;60508;42.622;25.416;2022-12-29T15:00:58;97612.81;;;11.25;55.68
45078;BME280;60508;42.622;25.416;2022-12-29T15:03:44;97615.72;;;11.24;56.06
45078;BME280;60508;42.622;25.416;2022-12-29T15:06:11;97622.94;;;11.11;56.18
45078;BME280;60508;42.622;25.416;2022-12-29T15:15:00;97619.88;;;10.89;57.26
45078;BME280;60508;42.622;25.416;2022-12-29T15:17:28;97623.47;;;10.83;57.51
45078;BME280;60508;42.622;25.416;2022-12-29T15:19:54;97623.16;;;10.73;57.96
45078;BME280;60508;42.622;25.416;2022-12-29T15:22:21;97615.69;;;10.56;58.86
45078;BME280;60508;42.622;25.416;2022-12-29T15:24:47;97619.66;;;10.54;58.94
45078;BME280;60508;42.622;25.416;2022-12-29T15:27:15;97616.38;;;10.52;59.37
45078;BME280;60508;42.622;25.416;2022-12-29T15:29:43;97620.97;;;10.45;58.89
45078;BME280;60508;42.622;25.416;2022-12-29T15:32:20;97619.28;;;10.50;59.29
45078;BME280;60508;42.622;25.416;2022-12-29T15:34:47;97628.38;;;10.49;59.21
45078;BME280;60508;42.622;25.416;2022-12-29T15:37:23;97622.91;;;10.56;59.25
45078;BME280;60508;42.622;25.416;2022-12-29T15:39:49;97631.50;;;10.46;59.22
45078;BME280;60508;42.622;25.416;2022-12-29T15:44:42;97629.34;;;10.30;59.69
45078;BME280;60508;42.622;25.416;2022-12-29T15:47:12;97627.91;;;10.34;59.81
45078;BME280;60508;42.622;25.416;2022-12-29T15:49:41;97623.81;;;10.24;60.25
45078;BME280;60508;42.622;25.416;2022-12-29T15:52:09;97632.31;;;10.21;60.58